createdAt,value
2022-10-20T00:02:14.546Z,19.75
2022-10-20T00:04:42.084Z,18.27
2022-10-20T00:07:11.275Z,22.13
2022-10-20T00:09:38.966Z,20.15
2022-10-20T00:12:07.549Z,17.45
2022-10-20T00:14:35.340Z,19.08
2022-10-20T00:17:03.436Z,15.80
2022-10-20T00:19:32.203Z,15.27
2022-10-20T00:22:00.343Z,18.50
2022-10-20T00:24:27.969Z,18.20
2022-10-20T00:26:55.679Z,14.65
2022-10-20T00:29:23.449Z,14.70
2022-10-20T00:31:51.160Z,15.23
2022-10-20T00:34:18.997Z,17.13
2022-10-20T00:36:50.366Z,15.55
2022-10-20T00:39:18.949Z,15.77
2022-10-20T00:41:46.717Z,14.82
2022-10-20T00:44:51.511Z,21.48
2022-10-20T00:47:54.018Z,17.73
2022-10-20T00:50:26.816Z,14.60
2022-10-20T00:52:55.929Z,16.85
2022-10-20T00:55:32.527Z,19.67
2022-10-20T01:00:29.434Z,17.08
2022-10-20T01:03:00.548Z,16.08
2022-10-20T01:05:28.749Z,13.95
2022-10-20T01:07:56.445Z,13.93
2022-10-20T01:10:31.644Z,14.23
2022-10-20T01:13:29.641Z,13.18
2022-10-20T01:16:19.414Z,13.18
2022-10-20T01:19:07.142Z,16.60
2022-10-20T01:21:56.863Z,13.32
2022-10-20T01:24:58.702Z,14.82
2022-10-20T01:27:42.073Z,15.02
2022-10-20T01:30:14.872Z,14.02
2022-10-20T01:32:51.523Z,13.95
2022-10-20T01:35:45.218Z,17.75
2022-10-20T01:38:41.073Z,18.85
2022-10-20T01:41:18.975Z,20.45
2022-10-20T01:43:49.289Z,14.60
2022-10-20T01:46:21.766Z,19.90
2022-10-20T01:48:49.810Z,15.80
2022-10-20T01:51:17.632Z,16.48
2022-10-20T01:53:45.258Z,12.95
2022-10-20T01:56:18.819Z,16.88
2022-10-20T01:59:09.575Z,18.23
2022-10-20T02:01:52.360Z,18.67
2022-10-20T02:04:31.129Z,13.63
2022-10-20T02:07:14.739Z,15.43
2022-10-20T02:09:50.064Z,14.20
2022-10-20T02:12:30.157Z,18.70
2022-10-20T02:14:58.927Z,17.33
2022-10-20T02:17:28.134Z,18.05
2022-10-20T02:19:58.385Z,17.27
2022-10-20T02:22:26.566Z,16.42
2022-10-20T02:24:54.355Z,13.82
2022-10-20T02:27:30.835Z,19.10
2022-10-20T02:30:10.703Z,17.42
2022-10-20T02:32:41.302Z,19.45
2022-10-20T02:35:15.446Z,18.80
2022-10-20T02:37:43.559Z,17.00
2022-10-20T02:40:11.748Z,12.70
2022-10-20T02:42:41.019Z,15.07
2022-10-20T02:45:09.458Z,12.80
2022-10-20T02:47:37.487Z,15.38
2022-10-20T02:50:06.625Z,13.57
2022-10-20T02:52:35.320Z,12.48
2022-10-20T02:55:03.202Z,15.30
2022-10-20T02:57:30.941Z,15.13
2022-10-20T02:59:58.584Z,13.90
2022-10-20T03:02:26.326Z,11.57
2022-10-20T03:04:53.906Z,12.82
2022-10-20T03:07:21.621Z,12.52
2022-10-20T03:09:49.468Z,16.00
2022-10-20T03:12:17.402Z,13.85
2022-10-20T03:14:45.522Z,13.48
2022-10-20T03:17:13.744Z,15.93
2022-10-20T03:19:41.620Z,15.98
2022-10-20T03:22:09.388Z,15.68
2022-10-20T03:24:37.255Z,14.15
2022-10-20T03:27:04.916Z,17.02
2022-10-20T03:29:32.649Z,17.88
2022-10-20T03:32:01.319Z,16.98
2022-10-20T03:34:28.983Z,16.10
2022-10-20T03:36:56.751Z,17.48
2022-10-20T03:39:24.538Z,20.60
2022-10-20T03:41:52.287Z,16.05
2022-10-20T03:44:19.983Z,20.15
2022-10-20T03:46:47.804Z,14.77
2022-10-20T03:49:15.687Z,15.23
2022-10-20T03:51:43.317Z,15.57
2022-10-20T03:54:11.036Z,15.15
2022-10-20T03:56:38.684Z,18.63
2022-10-20T03:59:06.260Z,17.83
2022-10-20T04:01:35.366Z,15.95
2022-10-20T04:04:03.048Z,17.58
2022-10-20T04:06:32.189Z,16.27
2022-10-20T04:08:59.958Z,13.02
2022-10-20T04:11:28.726Z,17.38
2022-10-20T04:13:56.538Z,13.75
2022-10-20T04:16:24.908Z,15.13
2022-10-20T04:18:54.089Z,14.85
2022-10-20T04:21:22.211Z,15.45
2022-10-20T04:23:50.015Z,17.20
2022-10-20T04:26:17.741Z,13.50
2022-10-20T04:28:45.684Z,16.52
2022-10-20T04:31:13.766Z,12.73
2022-10-20T04:33:41.707Z,17.63
2022-10-20T04:36:16.575Z,15.85
2022-10-20T04:38:44.186Z,18.83
2022-10-20T04:41:13.174Z,20.00
2022-10-20T04:43:40.777Z,18.13
2022-10-20T04:46:09.154Z,20.73
2022-10-20T04:48:38.311Z,17.23
2022-10-20T04:51:08.823Z,19.50
2022-10-20T04:53:37.361Z,22.17
2022-10-20T04:56:07.620Z,27.95
2022-10-20T04:58:36.220Z,24.67
2022-10-20T05:01:09.510Z,26.38
2022-10-20T05:03:37.599Z,21.88
2022-10-20T05:06:14.137Z,18.33
2022-10-20T05:08:43.346Z,18.25
2022-10-20T05:11:11.469Z,20.65
2022-10-20T05:13:40.310Z,15.25
2022-10-20T05:16:08.685Z,16.13
2022-10-20T05:18:36.881Z,18.27
2022-10-20T05:21:13.603Z,20.25
2022-10-20T05:26:15.487Z,28.35
2022-10-20T05:28:48.919Z,23.33
2022-10-20T05:31:18.893Z,31.15
2022-10-20T05:33:49.106Z,23.48
2022-10-20T05:36:21.607Z,21.92
2022-10-20T05:38:52.218Z,20.88
2022-10-20T05:41:25.913Z,22.50
2022-10-20T05:43:59.470Z,19.10
2022-10-20T05:46:29.533Z,20.42
2022-10-20T05:48:59.620Z,18.73
2022-10-20T05:51:30.963Z,18.88
2022-10-20T05:53:59.757Z,14.88
2022-10-20T05:56:29.691Z,20.80
2022-10-20T05:58:58.096Z,13.85
2022-10-20T06:01:28.721Z,10.05
2022-10-20T06:03:58.495Z,13.82
2022-10-20T06:06:29.294Z,16.92
2022-10-20T06:09:01.019Z,17.05
2022-10-20T06:11:28.837Z,12.25
2022-10-20T06:13:56.893Z,18.63
2022-10-20T06:16:26.536Z,18.60
2022-10-20T06:18:54.345Z,18.88
2022-10-20T06:21:24.310Z,19.58
2022-10-20T06:23:52.672Z,23.92
2022-10-20T06:26:23.328Z,19.67
2022-10-20T06:28:59.792Z,21.55
2022-10-20T06:31:33.136Z,25.27
2022-10-20T06:34:02.113Z,25.15
2022-10-20T06:36:29.814Z,28.30
2022-10-20T06:38:59.074Z,22.85
2022-10-20T06:41:28.718Z,24.25
2022-10-20T06:43:59.994Z,23.83
2022-10-20T06:46:29.639Z,15.73
2022-10-20T06:49:00.308Z,20.85
2022-10-20T06:51:28.233Z,25.23
2022-10-20T06:53:56.366Z,20.67
2022-10-20T06:56:26.215Z,21.67
2022-10-20T06:58:55.907Z,24.40
2022-10-20T07:01:29.461Z,27.27
2022-10-20T07:04:00.061Z,24.58
2022-10-20T07:06:31.012Z,20.10
2022-10-20T07:08:59.350Z,33.20
2022-10-20T07:11:29.169Z,28.83
2022-10-20T07:13:59.453Z,33.22
2022-10-20T07:16:30.119Z,31.42
2022-10-20T07:18:58.121Z,30.27
2022-10-20T07:21:32.396Z,27.38
2022-10-20T07:24:05.668Z,31.73
2022-10-20T07:26:36.098Z,33.88
2022-10-20T07:29:04.452Z,28.20
2022-10-20T07:31:38.194Z,27.35
2022-10-20T07:34:23.853Z,34.35
2022-10-20T07:36:53.676Z,26.77
2022-10-20T07:39:21.503Z,31.88
2022-10-20T07:41:49.638Z,35.42
2022-10-20T07:44:17.622Z,25.77
2022-10-20T07:46:45.444Z,27.75
2022-10-20T07:52:00.975Z,21.88
2022-10-20T07:54:28.673Z,22.58
2022-10-20T07:56:56.667Z,23.85
2022-10-20T07:59:24.673Z,15.82
2022-10-20T08:01:56.343Z,21.30
2022-10-20T08:04:26.656Z,27.73
2022-10-20T08:06:54.414Z,18.30
2022-10-20T08:09:22.043Z,17.98
2022-10-20T08:11:52.833Z,18.27
2022-10-20T08:14:27.021Z,18.27
2022-10-20T08:17:01.197Z,20.17
2022-10-20T08:19:32.150Z,17.25
2022-10-20T08:22:00.676Z,21.30
2022-10-20T08:24:28.432Z,18.00
2022-10-20T08:26:56.545Z,17.00
2022-10-20T08:29:24.322Z,19.00
2022-10-20T08:31:52.322Z,18.15
2022-10-20T08:34:21.327Z,22.38
2022-10-20T08:36:49.942Z,17.17
2022-10-20T08:39:17.607Z,14.77
2022-10-20T08:42:06.790Z,19.80
2022-10-20T08:44:39.028Z,24.42
2022-10-20T08:47:25.731Z,19.50
2022-10-20T08:49:57.394Z,21.88
2022-10-20T08:52:27.148Z,20.98
2022-10-20T08:54:57.134Z,19.92
2022-10-20T08:57:29.427Z,23.80
2022-10-20T09:00:13.345Z,19.08
2022-10-20T09:02:40.941Z,19.65
2022-10-20T09:05:12.897Z,21.10
2022-10-20T09:07:43.094Z,22.15
2022-10-20T09:10:16.813Z,23.38
2022-10-20T09:12:47.124Z,22.80
2022-10-20T09:15:17.188Z,19.25
2022-10-20T09:17:55.773Z,18.90
2022-10-20T09:20:29.379Z,16.38
2022-10-20T09:22:57.406Z,18.77
2022-10-20T09:25:27.566Z,14.02
2022-10-20T09:27:56.879Z,23.10
2022-10-20T09:30:34.289Z,19.35
2022-10-20T09:33:22.886Z,21.60
2022-10-20T09:35:51.445Z,15.90
2022-10-20T09:38:23.998Z,18.30
2022-10-20T09:41:18.826Z,23.58
2022-10-20T09:43:57.247Z,30.67
2022-10-20T09:46:31.543Z,29.25
2022-10-20T09:48:59.525Z,27.98
2022-10-20T09:51:31.240Z,27.58
2022-10-20T09:54:08.125Z,23.42
2022-10-20T09:56:39.228Z,26.15
2022-10-20T09:59:19.027Z,19.98
2022-10-20T10:02:01.967Z,27.15
2022-10-20T10:04:35.533Z,26.65
2022-10-20T10:07:05.630Z,24.52
2022-10-20T10:09:38.165Z,21.73
2022-10-20T10:12:17.474Z,28.48
2022-10-20T10:15:01.086Z,20.60
2022-10-20T10:17:33.585Z,24.40
2022-10-20T10:20:05.520Z,20.88
2022-10-20T10:22:34.423Z,24.33
2022-10-20T10:25:03.319Z,27.63
2022-10-20T10:27:34.328Z,23.20
2022-10-20T10:30:32.163Z,29.50
2022-10-20T10:35:40.072Z,25.92
2022-10-20T10:38:12.317Z,32.20
2022-10-20T10:40:46.102Z,25.92
2022-10-20T10:43:35.361Z,26.58
2022-10-20T10:46:20.750Z,24.90
2022-10-20T10:49:07.921Z,30.92
2022-10-20T10:51:47.536Z,30.23
2022-10-20T10:54:15.010Z,32.60
2022-10-20T10:56:49.144Z,25.80
2022-10-20T10:59:29.979Z,25.10
2022-10-20T11:02:22.341Z,25.30
2022-10-20T11:05:22.853Z,24.08
2022-10-20T11:08:12.970Z,21.10
2022-10-20T11:10:43.730Z,18.10
2022-10-20T11:13:49.082Z,28.60
2022-10-20T11:16:25.875Z,28.83
2022-10-20T11:21:51.811Z,32.22
2022-10-20T11:24:39.679Z,27.90
2022-10-20T11:27:20.734Z,32.35
2022-10-20T11:29:53.720Z,27.05
2022-10-20T11:35:14.852Z,26.05
2022-10-20T11:37:50.711Z,22.58
2022-10-20T11:40:29.983Z,23.55
2022-10-20T11:43:17.403Z,21.10
2022-10-20T11:46:02.098Z,25.13
2022-10-20T11:48:40.495Z,24.33
2022-10-20T11:51:34.456Z,19.98
2022-10-20T11:54:21.175Z,26.48
2022-10-20T11:57:34.275Z,23.27
2022-10-20T12:00:23.281Z,20.65
2022-10-20T12:02:58.710Z,24.80
2022-10-20T12:05:51.032Z,25.88
2022-10-20T12:08:37.694Z,25.15
2022-10-20T12:11:35.132Z,20.80
2022-10-20T12:14:15.030Z,19.38
2022-10-20T12:16:53.515Z,24.98
2022-10-20T12:19:22.278Z,23.73
2022-10-20T12:22:06.968Z,20.73
2022-10-20T12:24:43.361Z,44.10
2022-10-20T12:27:11.109Z,38.03
2022-10-20T12:29:39.284Z,40.50
2022-10-20T12:32:24.373Z,28.17
2022-10-20T12:34:53.340Z,33.03
2022-10-20T12:37:26.189Z,28.05
2022-10-20T12:39:57.294Z,27.10
2022-10-20T12:42:33.231Z,27.95
2022-10-20T12:45:21.651Z,24.25
2022-10-20T12:47:53.749Z,24.88
2022-10-20T12:50:43.676Z,27.98
2022-10-20T12:53:25.038Z,30.83
2022-10-20T12:56:19.544Z,29.58
2022-10-20T12:59:23.937Z,28.25
2022-10-20T13:02:10.579Z,22.98
2022-10-20T13:05:03.534Z,23.60
2022-10-20T13:07:46.423Z,19.63
2022-10-20T13:10:37.542Z,24.27
2022-10-20T13:13:05.522Z,22.27
2022-10-20T13:15:36.716Z,32.05
2022-10-20T13:18:08.117Z,28.13
2022-10-20T13:21:09.939Z,29.30
2022-10-20T13:23:41.392Z,32.63
2022-10-20T13:26:21.161Z,23.98
2022-10-20T13:28:52.319Z,30.52
2022-10-20T13:31:35.698Z,23.70
2022-10-20T13:34:30.637Z,26.83
2022-10-20T13:37:21.648Z,26.17
2022-10-20T13:40:23.597Z,26.13
2022-10-20T13:43:10.201Z,24.20
2022-10-20T13:45:49.942Z,32.40
2022-10-20T13:48:54.000Z,23.20
2022-10-20T13:51:26.975Z,29.48
2022-10-20T13:53:58.950Z,27.60
2022-10-20T13:56:48.897Z,20.33
2022-10-20T13:59:25.848Z,26.23
2022-10-20T14:01:57.015Z,24.58
2022-10-20T14:04:29.691Z,25.70
2022-10-20T14:07:03.927Z,19.17
2022-10-20T14:09:31.666Z,21.92
2022-10-20T14:12:04.172Z,24.13
2022-10-20T14:14:32.407Z,21.00
2022-10-20T14:17:06.055Z,25.55
2022-10-20T14:19:34.553Z,24.48
2022-10-20T14:22:11.202Z,27.23
2022-10-20T14:27:17.670Z,18.92
2022-10-20T14:29:45.959Z,19.92
2022-10-20T14:32:29.956Z,18.67
2022-10-20T14:35:12.429Z,13.90
2022-10-20T14:37:45.255Z,28.30
2022-10-20T14:40:24.450Z,23.13
2022-10-20T14:42:52.911Z,19.92
2022-10-20T14:45:26.564Z,19.95
2022-10-20T14:47:57.103Z,18.65
2022-10-20T14:50:31.382Z,19.35
2022-10-20T14:53:17.643Z,16.17
2022-10-20T14:55:45.596Z,23.35
2022-10-20T14:59:15.295Z,17.85
2022-10-20T15:02:11.096Z,19.15
2022-10-20T15:04:44.393Z,22.65
2022-10-20T15:07:16.954Z,18.40
2022-10-20T15:09:49.912Z,21.63
2022-10-20T15:12:19.263Z,15.10
2022-10-20T15:15:02.817Z,17.13
2022-10-20T15:17:42.420Z,23.48
2022-10-20T15:20:32.563Z,18.13
2022-10-20T15:23:13.385Z,16.25
2022-10-20T15:25:45.597Z,16.77
2022-10-20T15:28:27.733Z,22.52
2022-10-20T15:30:55.568Z,23.00
2022-10-20T15:33:23.411Z,19.60
2022-10-20T15:35:52.401Z,16.52
2022-10-20T15:38:20.484Z,20.92
2022-10-20T15:40:50.075Z,17.67
2022-10-20T15:43:19.437Z,16.63
2022-10-20T15:45:55.080Z,19.63
2022-10-20T15:48:26.483Z,17.33
2022-10-20T15:50:55.186Z,18.48
2022-10-20T15:53:23.122Z,15.60
2022-10-20T15:55:51.241Z,19.52
2022-10-20T15:58:20.039Z,15.55
2022-10-20T16:00:47.949Z,19.02
2022-10-20T16:03:19.353Z,14.80
2022-10-20T16:05:47.712Z,20.70
2022-10-20T16:10:48.067Z,19.85
2022-10-20T16:13:18.390Z,17.73
2022-10-20T16:15:46.273Z,16.65
2022-10-20T16:18:13.957Z,21.67
2022-10-20T16:20:41.597Z,21.17
2022-10-20T16:23:09.208Z,16.20
2022-10-20T16:25:40.136Z,20.15
2022-10-20T16:28:08.558Z,16.92
2022-10-20T16:30:36.397Z,15.18
2022-10-20T16:33:04.205Z,16.35
2022-10-20T16:35:31.831Z,20.13
2022-10-20T16:37:59.525Z,17.75
2022-10-20T16:40:27.340Z,16.42
2022-10-20T16:42:55.102Z,18.83
2022-10-20T16:47:51.308Z,19.40
2022-10-20T16:50:18.934Z,18.63
2022-10-20T16:52:46.504Z,16.38
2022-10-20T16:55:14.132Z,15.80
2022-10-20T16:57:41.665Z,18.30
2022-10-20T17:00:10.231Z,15.88
2022-10-20T17:02:38.157Z,15.98
2022-10-20T17:05:09.184Z,19.25
2022-10-20T17:07:37.779Z,21.45
2022-10-20T17:10:06.730Z,20.63
2022-10-20T17:12:34.549Z,22.48
2022-10-20T17:15:02.191Z,21.05
2022-10-20T17:17:29.843Z,22.40
2022-10-20T17:19:57.607Z,20.73
2022-10-20T17:22:25.374Z,23.27
2022-10-20T17:24:53.147Z,20.05
2022-10-20T17:27:20.738Z,21.85
2022-10-20T17:29:48.403Z,17.75
2022-10-20T17:32:18.168Z,16.05
2022-10-20T17:34:46.570Z,24.40
2022-10-20T17:37:14.214Z,18.33
2022-10-20T17:39:42.052Z,26.00
2022-10-20T17:42:09.556Z,16.02
2022-10-20T17:44:37.335Z,19.63
2022-10-20T17:47:05.163Z,22.23
2022-10-20T17:49:32.714Z,21.50
2022-10-20T17:52:00.809Z,18.65
2022-10-20T17:54:28.563Z,18.90
2022-10-20T17:56:56.145Z,20.08
2022-10-20T17:59:23.886Z,19.98
2022-10-20T18:01:51.628Z,16.17
2022-10-20T18:04:19.238Z,14.50
2022-10-20T18:06:47.001Z,20.83
2022-10-20T18:09:17.742Z,18.60
2022-10-20T18:11:48.224Z,18.67
2022-10-20T18:14:17.152Z,19.48
2022-10-20T18:16:45.174Z,19.88
2022-10-20T18:19:17.921Z,21.42
2022-10-20T18:21:46.405Z,18.65
2022-10-20T18:24:16.386Z,19.02
2022-10-20T18:26:45.219Z,20.52
2022-10-20T18:29:14.422Z,23.65
2022-10-20T18:31:43.886Z,21.80
2022-10-20T18:34:15.067Z,20.92
2022-10-20T18:36:45.770Z,26.75
2022-10-20T18:39:14.909Z,22.98
2022-10-20T18:41:44.296Z,21.75
2022-10-20T18:44:17.198Z,24.65
2022-10-20T18:46:46.536Z,23.77
2022-10-20T18:49:18.882Z,19.90
2022-10-20T18:51:47.670Z,17.83
2022-10-20T18:54:15.860Z,15.65
2022-10-20T18:56:43.628Z,20.33
2022-10-20T18:59:16.300Z,28.10
2022-10-20T19:01:44.853Z,37.97
2022-10-20T19:04:12.773Z,45.97
2022-10-20T19:06:44.646Z,35.50
2022-10-20T19:09:15.371Z,34.67
2022-10-20T19:11:44.531Z,35.30
2022-10-20T19:14:12.938Z,27.95
2022-10-20T19:16:43.248Z,28.88
2022-10-20T19:19:11.501Z,26.77
2022-10-20T19:21:39.628Z,24.88
2022-10-20T19:24:15.875Z,22.50
2022-10-20T19:26:56.955Z,22.08
2022-10-20T19:29:30.361Z,21.27
2022-10-20T19:32:01.135Z,19.23
2022-10-20T19:34:40.244Z,18.42
2022-10-20T19:37:09.500Z,15.18
2022-10-20T19:39:40.245Z,16.00
2022-10-20T19:42:09.526Z,14.77
2022-10-20T19:44:38.860Z,13.93
2022-10-20T19:47:08.270Z,15.57
2022-10-20T19:49:40.746Z,13.10
2022-10-20T19:52:09.305Z,13.85
2022-10-20T19:54:37.327Z,14.13
2022-10-20T19:57:07.895Z,12.10
2022-10-20T19:59:36.877Z,13.02
2022-10-20T20:02:05.013Z,14.35
2022-10-20T20:04:32.799Z,18.42
2022-10-20T20:07:02.365Z,13.73
2022-10-20T20:09:30.965Z,15.52
2022-10-20T20:12:00.690Z,12.95
2022-10-20T20:14:28.560Z,11.80
2022-10-20T20:16:56.498Z,8.65
2022-10-20T20:19:25.266Z,14.15
2022-10-20T20:21:53.225Z,10.98
2022-10-20T20:24:21.033Z,12.75
2022-10-20T20:26:48.869Z,12.43
2022-10-20T20:29:16.849Z,12.32
2022-10-20T20:31:45.727Z,12.25
2022-10-20T20:34:13.349Z,14.32
2022-10-20T20:36:40.913Z,10.73
2022-10-20T20:39:09.531Z,14.50
2022-10-20T20:41:38.654Z,10.40
2022-10-20T20:44:08.441Z,11.68
2022-10-20T20:46:36.958Z,10.70
2022-10-20T20:49:05.438Z,9.18
2022-10-20T20:51:36.743Z,9.98
2022-10-20T20:54:04.854Z,8.80
2022-10-20T20:56:32.908Z,10.93
2022-10-20T20:59:00.795Z,11.05
2022-10-20T21:01:32.199Z,10.38
2022-10-20T21:04:03.717Z,10.80
2022-10-20T21:06:49.386Z,8.60
2022-10-20T21:09:21.381Z,11.73
2022-10-20T21:11:49.378Z,11.40
2022-10-20T21:14:17.140Z,11.25
2022-10-20T21:16:44.884Z,12.70
2022-10-20T21:19:13.078Z,10.32
2022-10-20T21:21:44.513Z,9.18
2022-10-20T21:24:12.977Z,9.18
2022-10-20T21:26:40.989Z,9.50
2022-10-20T21:29:08.776Z,11.52
2022-10-20T21:31:36.966Z,11.68
2022-10-20T21:34:07.652Z,9.98
2022-10-20T21:36:37.830Z,9.63
2022-10-20T21:39:09.935Z,10.35
2022-10-20T21:41:37.981Z,13.10
2022-10-20T21:44:07.340Z,10.23
2022-10-20T21:46:47.250Z,11.00
2022-10-20T21:49:17.726Z,10.98
2022-10-20T21:51:52.893Z,15.02
2022-10-20T21:54:24.106Z,9.57
2022-10-20T21:56:54.095Z,13.10
2022-10-20T21:59:26.945Z,12.90
2022-10-20T22:01:57.170Z,15.60
2022-10-20T22:04:27.248Z,14.13
2022-10-20T22:06:56.230Z,13.00
2022-10-20T22:09:26.708Z,15.48
2022-10-20T22:11:56.800Z,11.95
2022-10-20T22:14:24.740Z,15.07
2022-10-20T22:16:52.660Z,12.85
2022-10-20T22:19:22.301Z,15.27
2022-10-20T22:21:51.813Z,12.88
2022-10-20T22:24:21.024Z,14.30
2022-10-20T22:26:51.847Z,10.98
2022-10-20T22:29:21.643Z,12.43
2022-10-20T22:31:49.331Z,11.30
2022-10-20T22:34:17.007Z,12.35
2022-10-20T22:36:44.722Z,12.77
2022-10-20T22:41:46.401Z,13.40
2022-10-20T22:44:14.277Z,16.73
2022-10-20T22:46:42.316Z,13.40
2022-10-20T22:49:13.017Z,16.92
2022-10-20T22:51:40.586Z,12.93
2022-10-20T22:54:08.581Z,15.50
2022-10-20T22:56:36.190Z,12.65
2022-10-20T22:59:04.277Z,15.68
2022-10-20T23:01:32.042Z,14.05
2022-10-20T23:03:59.928Z,12.85
2022-10-20T23:06:28.287Z,14.68
2022-10-20T23:08:56.814Z,14.68
2022-10-20T23:11:27.105Z,10.23
2022-10-20T23:13:56.460Z,12.00
2022-10-20T23:16:26.249Z,11.95
2022-10-20T23:18:55.467Z,13.73
2022-10-20T23:21:23.166Z,12.52
2022-10-20T23:23:50.855Z,14.95
2022-10-20T23:26:18.501Z,13.80
2022-10-20T23:28:47.475Z,15.68
2022-10-20T23:31:17.762Z,14.80
2022-10-20T23:33:47.053Z,10.35
2022-10-20T23:36:16.033Z,11.60
2022-10-20T23:38:44.136Z,10.65
2022-10-20T23:41:12.116Z,12.30
2022-10-20T23:43:40.346Z,14.15
2022-10-20T23:46:08.561Z,12.55
2022-10-20T23:48:36.272Z,12.00
2022-10-20T23:51:04.643Z,10.82
2022-10-20T23:53:32.323Z,16.75
2022-10-20T23:56:00.149Z,10.77
2022-10-20T23:58:27.888Z,13.18
